createdAt,value
2019-01-04T00:01:34.342Z,1.60
2019-01-04T00:04:04.767Z,1.80
2019-01-04T00:06:35.031Z,1.80
2019-01-04T00:09:06.165Z,1.70
2019-01-04T00:11:37.411Z,1.80
2019-01-04T00:14:08.105Z,1.80
2019-01-04T00:16:38.581Z,1.90
2019-01-04T00:19:08.647Z,2.00
2019-01-04T00:21:39.222Z,2.00
2019-01-04T00:24:09.697Z,2.00
2019-01-04T00:26:39.994Z,2.00
2019-01-04T00:29:11.218Z,2.00
2019-01-04T00:31:41.653Z,2.10
2019-01-04T00:34:12.407Z,2.10
2019-01-04T00:36:44.234Z,2.10
2019-01-04T00:39:14.940Z,2.20
2019-01-04T00:41:45.282Z,2.30
2019-01-04T00:44:15.703Z,2.30
2019-01-04T00:46:46.160Z,2.30
2019-01-04T00:49:16.324Z,2.40
2019-01-04T00:51:46.551Z,2.50
2019-01-04T00:54:16.900Z,2.40
2019-01-04T00:56:59.015Z,2.30
2019-01-04T00:59:47.202Z,2.30
2019-01-04T01:02:26.233Z,2.30
2019-01-04T01:05:02.401Z,2.40
2019-01-04T01:07:55.666Z,2.40
2019-01-04T01:10:56.285Z,2.40
2019-01-04T01:13:46.495Z,2.40
2019-01-04T01:16:53.312Z,2.50
2019-01-04T01:19:35.900Z,2.50
2019-01-04T01:22:30.171Z,2.50
2019-01-04T01:25:06.204Z,2.50
2019-01-04T01:27:59.639Z,2.60
2019-01-04T01:30:51.294Z,2.60
2019-01-04T01:33:27.063Z,2.60
2019-01-04T01:36:12.355Z,2.70
2019-01-04T01:38:57.328Z,2.80
2019-01-04T01:41:58.248Z,2.80
2019-01-04T01:44:37.451Z,2.90
2019-01-04T01:47:13.816Z,2.90
2019-01-04T01:49:55.740Z,3.00
2019-01-04T01:52:29.345Z,3.00
2019-01-04T01:54:59.803Z,3.00
2019-01-04T01:57:30.441Z,3.10
2019-01-04T02:00:01.510Z,3.20
2019-01-04T02:02:32.150Z,3.20
2019-01-04T02:05:02.600Z,3.30
2019-01-04T02:07:33.143Z,3.30
2019-01-04T02:10:03.643Z,3.30
2019-01-04T02:12:33.927Z,3.30
2019-01-04T02:15:05.318Z,3.30
2019-01-04T02:17:35.465Z,3.30
2019-01-04T02:20:06.523Z,3.30
2019-01-04T02:22:36.946Z,3.40
2019-01-04T02:25:07.313Z,3.50
2019-01-04T02:27:37.674Z,3.50
2019-01-04T02:30:08.550Z,3.50
2019-01-04T02:32:38.888Z,3.50
2019-01-04T02:35:09.309Z,3.60
2019-01-04T02:37:39.325Z,3.50
2019-01-04T02:40:09.442Z,3.60
2019-01-04T02:42:39.447Z,3.50
2019-01-04T02:45:09.727Z,3.60
2019-01-04T02:47:39.968Z,3.60
2019-01-04T02:50:10.425Z,3.60
2019-01-04T02:52:40.880Z,3.70
2019-01-04T02:55:11.189Z,3.70
2019-01-04T02:57:41.301Z,3.70
2019-01-04T03:00:11.864Z,3.60
2019-01-04T03:02:42.261Z,3.60
2019-01-04T03:05:12.426Z,3.70
2019-01-04T03:07:42.701Z,3.80
2019-01-04T03:10:13.391Z,3.80
2019-01-04T03:12:43.784Z,3.80
2019-01-04T03:15:14.397Z,3.80
2019-01-04T03:17:45.044Z,3.80
2019-01-04T03:20:15.378Z,3.90
2019-01-04T03:22:45.356Z,3.90
2019-01-04T03:25:15.875Z,3.90
2019-01-04T03:27:46.563Z,3.90
2019-01-04T03:30:16.945Z,3.90
2019-01-04T03:32:47.254Z,3.90
2019-01-04T03:35:17.577Z,3.90
2019-01-04T03:37:47.942Z,3.90
2019-01-04T03:40:18.782Z,3.90
2019-01-04T03:42:49.203Z,4.00
2019-01-04T03:45:19.644Z,4.10
2019-01-04T03:47:50.389Z,4.00
2019-01-04T03:50:21.368Z,4.00
2019-01-04T03:52:51.941Z,4.10
2019-01-04T03:55:22.284Z,4.00
2019-01-04T03:57:53.295Z,4.10
2019-01-04T04:00:23.695Z,4.10
2019-01-04T04:02:54.748Z,4.00
2019-01-04T04:05:25.379Z,4.10
2019-01-04T04:07:56.345Z,4.10
2019-01-04T04:10:26.783Z,4.00
2019-01-04T04:12:56.753Z,4.00
2019-01-04T04:15:27.008Z,4.00
2019-01-04T04:17:57.085Z,4.10
2019-01-04T04:20:27.998Z,4.10
2019-01-04T04:22:58.186Z,4.10
2019-01-04T04:25:28.457Z,4.10
2019-01-04T04:27:59.503Z,4.30
2019-01-04T04:30:29.943Z,4.20
2019-01-04T04:33:00.322Z,4.20
2019-01-04T04:35:30.574Z,4.20
2019-01-04T04:38:00.624Z,4.20
2019-01-04T04:40:31.055Z,4.20
2019-01-04T04:43:01.296Z,4.30
2019-01-04T04:45:34.045Z,4.30
2019-01-04T04:48:04.524Z,4.30
2019-01-04T04:50:35.067Z,4.30
2019-01-04T04:53:05.110Z,4.30
2019-01-04T04:55:35.673Z,4.30
2019-01-04T04:58:06.805Z,4.30
2019-01-04T05:00:36.774Z,4.30
2019-01-04T05:03:07.307Z,4.40
2019-01-04T05:05:37.777Z,4.40
2019-01-04T05:08:08.283Z,4.40
2019-01-04T05:10:38.880Z,4.40
2019-01-04T05:13:09.387Z,4.40
2019-01-04T05:15:39.700Z,4.40
2019-01-04T05:18:09.697Z,4.40
2019-01-04T05:20:39.848Z,4.50
2019-01-04T05:23:10.104Z,4.50
2019-01-04T05:25:40.557Z,4.50
2019-01-04T05:28:10.724Z,4.50
2019-01-04T05:30:40.848Z,4.50
2019-01-04T05:33:11.070Z,4.50
2019-01-04T05:35:41.086Z,4.50
2019-01-04T05:38:12.086Z,4.40
2019-01-04T05:40:42.092Z,4.40
2019-01-04T05:43:12.378Z,4.40
2019-01-04T05:45:42.640Z,4.40
2019-01-04T05:48:12.905Z,4.40
2019-01-04T05:50:43.304Z,4.40
2019-01-04T05:53:13.480Z,4.40
2019-01-04T05:55:43.723Z,4.40
2019-01-04T05:58:14.336Z,4.40
2019-01-04T06:00:44.394Z,4.40
2019-01-04T06:03:14.559Z,4.40
2019-01-04T06:05:46.160Z,4.50
2019-01-04T06:08:16.828Z,4.50
2019-01-04T06:10:47.633Z,4.50
2019-01-04T06:13:17.866Z,4.50
2019-01-04T06:15:47.827Z,4.50
2019-01-04T06:18:17.986Z,4.60
2019-01-04T06:20:48.491Z,4.60
2019-01-04T06:23:19.145Z,4.60
2019-01-04T06:25:49.600Z,4.60
2019-01-04T06:28:19.807Z,4.60
2019-01-04T06:30:49.709Z,4.60
2019-01-04T06:33:19.775Z,4.70
2019-01-04T06:35:50.053Z,4.80
2019-01-04T06:38:20.193Z,4.80
2019-01-04T06:40:50.339Z,4.70
2019-01-04T06:43:20.961Z,4.80
2019-01-04T06:45:50.913Z,4.70
2019-01-04T06:48:20.993Z,4.70
2019-01-04T06:50:51.249Z,4.70
2019-01-04T06:53:21.520Z,4.70
2019-01-04T06:55:52.767Z,4.70
2019-01-04T06:58:22.763Z,4.70
2019-01-04T07:00:53.403Z,4.70
2019-01-04T07:03:23.553Z,4.70
2019-01-04T07:05:53.881Z,4.70
2019-01-04T07:08:24.615Z,4.70
2019-01-04T07:10:54.973Z,4.70
2019-01-04T07:13:25.229Z,4.70
2019-01-04T07:15:56.102Z,4.70
2019-01-04T07:18:26.017Z,4.80
2019-01-04T07:20:56.208Z,4.70
2019-01-04T07:23:26.382Z,4.70
2019-01-04T07:25:58.250Z,4.80
2019-01-04T07:28:28.629Z,4.80
2019-01-04T07:30:59.356Z,4.80
2019-01-04T07:33:29.385Z,4.80
2019-01-04T07:35:59.487Z,4.80
2019-01-04T07:38:29.644Z,4.80
2019-01-04T07:41:00.927Z,4.80
2019-01-04T07:43:31.976Z,4.90
2019-01-04T07:46:01.839Z,4.80
2019-01-04T07:48:31.805Z,4.80
2019-01-04T07:51:01.821Z,4.80
2019-01-04T07:53:31.978Z,4.80
2019-01-04T07:56:02.579Z,4.80
2019-01-04T07:58:32.827Z,4.80
2019-01-04T08:01:03.027Z,4.80
2019-01-04T08:03:33.679Z,4.80
2019-01-04T08:06:04.010Z,4.80
2019-01-04T08:08:34.310Z,4.80
2019-01-04T08:11:04.561Z,4.90
2019-01-04T08:13:35.080Z,4.90
2019-01-04T08:16:05.477Z,4.90
2019-01-04T08:18:35.972Z,4.90
2019-01-04T08:21:06.159Z,4.80
2019-01-04T08:23:36.577Z,4.80
2019-01-04T08:26:06.688Z,4.80
2019-01-04T08:28:36.982Z,4.80
2019-01-04T08:31:07.388Z,4.80
2019-01-04T08:33:37.596Z,4.70
2019-01-04T08:36:07.944Z,4.70
2019-01-04T08:38:38.094Z,4.80
2019-01-04T08:41:08.349Z,4.80
2019-01-04T08:43:38.500Z,4.80
2019-01-04T08:46:08.503Z,4.80
2019-01-04T08:48:38.821Z,4.70
2019-01-04T08:51:08.769Z,4.90
2019-01-04T08:53:59.111Z,4.80
2019-01-04T08:56:31.686Z,4.80
2019-01-04T08:59:02.120Z,4.80
2019-01-04T09:01:32.276Z,4.70
2019-01-04T09:04:02.422Z,4.90
2019-01-04T09:06:32.588Z,4.80
2019-01-04T09:09:02.692Z,4.80
2019-01-04T09:11:33.095Z,4.90
2019-01-04T09:14:03.382Z,4.90
2019-01-04T09:16:33.367Z,4.90
2019-01-04T09:19:03.246Z,5.00
2019-01-04T09:21:33.158Z,5.00
2019-01-04T09:24:03.117Z,5.00
2019-01-04T09:26:33.125Z,5.00
2019-01-04T09:29:02.905Z,5.00
2019-01-04T09:31:32.873Z,4.90
2019-01-04T09:34:02.860Z,4.90
2019-01-04T09:36:33.046Z,5.00
2019-01-04T09:39:03.499Z,5.10
2019-01-04T09:41:35.498Z,5.10
2019-01-04T09:44:05.706Z,5.10
2019-01-04T09:46:35.786Z,5.10
2019-01-04T09:49:06.550Z,5.10
2019-01-04T09:51:36.661Z,5.10
2019-01-04T09:54:06.491Z,5.20
2019-01-04T09:56:37.674Z,5.10
2019-01-04T09:59:07.887Z,5.10
2019-01-04T10:01:38.064Z,5.00
2019-01-04T10:04:08.279Z,5.10
2019-01-04T10:06:38.569Z,5.10
2019-01-04T10:09:08.620Z,5.10
2019-01-04T10:11:38.573Z,5.10
2019-01-04T10:14:08.682Z,5.20
2019-01-04T10:16:39.041Z,5.20
2019-01-04T10:19:09.106Z,5.30
2019-01-04T10:21:39.293Z,5.20
2019-01-04T10:24:09.622Z,5.20
2019-01-04T10:26:39.905Z,5.30
2019-01-04T10:29:09.863Z,5.30
2019-01-04T10:31:40.218Z,5.30
2019-01-04T10:34:10.609Z,5.20
2019-01-04T10:36:40.588Z,5.30
2019-01-04T10:39:11.079Z,5.30
2019-01-04T10:41:41.658Z,5.20
2019-01-04T10:44:11.674Z,5.20
2019-01-04T10:46:41.774Z,5.30
2019-01-04T10:49:11.754Z,5.40
2019-01-04T10:51:41.894Z,5.40
2019-01-04T10:54:12.032Z,5.40
2019-01-04T10:56:42.094Z,5.40
2019-01-04T10:59:12.491Z,5.40
2019-01-04T11:01:42.790Z,5.40
2019-01-04T11:04:13.236Z,5.50
2019-01-04T11:06:43.356Z,5.50
2019-01-04T11:09:13.353Z,5.50
2019-01-04T11:11:43.288Z,5.50
2019-01-04T11:14:13.298Z,5.60
2019-01-04T11:16:43.282Z,5.50
2019-01-04T11:19:13.085Z,5.60
2019-01-04T11:21:43.279Z,5.70
2019-01-04T11:24:19.013Z,5.80
2019-01-04T11:26:51.459Z,5.90
2019-01-04T11:29:30.202Z,5.80
2019-01-04T11:32:09.209Z,5.80
2019-01-04T11:35:09.721Z,5.80
2019-01-04T11:38:03.763Z,5.90
2019-01-04T11:40:48.695Z,6.00
2019-01-04T11:43:45.832Z,6.00
2019-01-04T11:46:27.408Z,5.90
2019-01-04T11:49:03.273Z,6.00
2019-01-04T11:51:39.074Z,6.10
2019-01-04T11:54:09.892Z,6.10
2019-01-04T11:56:40.357Z,6.10
2019-01-04T11:59:10.351Z,6.20
2019-01-04T12:01:40.434Z,6.20
2019-01-04T12:04:10.584Z,6.30
2019-01-04T12:06:40.769Z,6.30
2019-01-04T12:09:10.726Z,6.40
2019-01-04T12:11:40.698Z,6.50
2019-01-04T12:14:10.946Z,6.50
2019-01-04T12:16:41.046Z,6.50
2019-01-04T12:19:11.297Z,6.50
2019-01-04T12:21:42.182Z,6.60
2019-01-04T12:24:13.516Z,6.70
2019-01-04T12:26:43.929Z,6.70
2019-01-04T12:29:13.992Z,6.70
2019-01-04T12:31:43.925Z,6.60
2019-01-04T12:34:16.738Z,6.70
2019-01-04T12:36:46.082Z,6.70
2019-01-04T12:39:16.314Z,6.80
2019-01-04T12:41:46.389Z,6.90
2019-01-04T12:44:16.487Z,6.80
2019-01-04T12:46:46.494Z,6.90
2019-01-04T12:49:16.605Z,6.90
2019-01-04T12:51:46.690Z,6.90
2019-01-04T12:54:16.864Z,6.90
2019-01-04T12:56:46.870Z,6.90
2019-01-04T12:59:17.042Z,6.90
2019-01-04T13:01:48.386Z,6.90
2019-01-04T13:04:18.998Z,7.00
2019-01-04T13:06:49.442Z,6.90
2019-01-04T13:09:19.529Z,6.90
2019-01-04T13:11:49.589Z,7.00
2019-01-04T13:14:20.025Z,7.00
2019-01-04T13:16:50.525Z,7.00
2019-01-04T13:19:25.682Z,7.00
2019-01-04T13:21:53.229Z,6.90
2019-01-04T13:24:23.769Z,6.90
2019-01-04T13:26:53.893Z,6.90
2019-01-04T13:29:24.466Z,7.00
2019-01-04T13:31:54.789Z,7.00
2019-01-04T13:34:25.469Z,7.10
2019-01-04T13:36:56.594Z,7.00
2019-01-04T13:39:27.040Z,7.00
2019-01-04T13:41:57.484Z,6.90
2019-01-04T13:44:28.073Z,6.90
2019-01-04T13:46:58.448Z,6.90
2019-01-04T13:49:28.882Z,6.90
2019-01-04T13:51:59.527Z,6.90
2019-01-04T13:54:29.692Z,6.90
2019-01-04T13:57:00.122Z,6.90
2019-01-04T13:59:30.502Z,6.90
2019-01-04T14:02:00.707Z,6.90
2019-01-04T14:04:31.080Z,7.00
2019-01-04T14:07:01.373Z,6.90
2019-01-04T14:09:31.629Z,6.90
2019-01-04T14:12:01.970Z,7.00
2019-01-04T14:14:32.182Z,6.90
2019-01-04T14:17:02.309Z,6.90
2019-01-04T14:19:33.027Z,6.90
2019-01-04T14:22:03.237Z,6.90
2019-01-04T14:24:33.598Z,6.90
2019-01-04T14:27:03.601Z,6.90
2019-01-04T14:29:34.029Z,6.90
2019-01-04T14:32:04.513Z,6.90
2019-01-04T14:34:36.159Z,7.00
2019-01-04T14:37:06.650Z,7.00
2019-01-04T14:39:37.282Z,7.10
2019-01-04T14:42:07.578Z,7.00
2019-01-04T14:44:38.115Z,7.10
2019-01-04T14:47:10.068Z,7.10
2019-01-04T14:49:40.515Z,7.20
2019-01-04T14:52:11.203Z,7.20
2019-01-04T14:54:41.728Z,7.20
2019-01-04T14:57:12.191Z,7.20
2019-01-04T14:59:42.595Z,7.20
2019-01-04T15:02:13.791Z,7.20
2019-01-04T15:04:44.230Z,7.20
2019-01-04T15:07:14.460Z,7.20
2019-01-04T15:09:45.015Z,7.20
2019-01-04T15:12:15.393Z,7.20
2019-01-04T15:14:45.817Z,7.30
2019-01-04T15:17:16.012Z,7.30
2019-01-04T15:19:46.837Z,7.30
2019-01-04T15:22:17.144Z,7.30
2019-01-04T15:24:47.240Z,7.30
2019-01-04T15:27:17.634Z,7.40
2019-01-04T15:29:48.100Z,7.40
2019-01-04T15:32:18.876Z,7.30
2019-01-04T15:34:49.349Z,7.30
2019-01-04T15:37:20.163Z,7.30
2019-01-04T15:39:50.447Z,7.40
2019-01-04T15:42:21.005Z,7.40
2019-01-04T15:44:51.465Z,7.40
2019-01-04T15:47:21.979Z,7.40
2019-01-04T15:49:52.505Z,7.40
2019-01-04T15:52:22.872Z,7.40
2019-01-04T15:54:53.448Z,7.50
2019-01-04T15:57:23.806Z,7.50
2019-01-04T15:59:53.969Z,7.40
2019-01-04T16:02:24.127Z,7.40
2019-01-04T16:04:54.044Z,7.40
2019-01-04T16:07:24.335Z,7.40
2019-01-04T16:09:54.840Z,7.40
2019-01-04T16:12:25.393Z,7.40
2019-01-04T16:14:55.674Z,7.40
2019-01-04T16:17:28.292Z,7.40
2019-01-04T16:19:58.552Z,7.50
2019-01-04T16:22:29.056Z,7.40
2019-01-04T16:24:59.295Z,7.50
2019-01-04T16:27:29.817Z,7.40
2019-01-04T16:30:00.190Z,7.40
2019-01-04T16:32:30.386Z,7.40
2019-01-04T16:35:00.629Z,7.40
2019-01-04T16:37:30.895Z,7.50
2019-01-04T16:40:01.420Z,7.50
2019-01-04T16:42:31.687Z,7.50
2019-01-04T16:45:01.974Z,7.50
2019-01-04T16:47:33.063Z,7.40
2019-01-04T16:50:03.827Z,7.60
2019-01-04T16:52:35.745Z,7.50
2019-01-04T16:55:07.903Z,7.50
2019-01-04T16:57:38.362Z,7.50
2019-01-04T17:00:11.431Z,7.40
2019-01-04T17:02:41.903Z,7.50
2019-01-04T17:05:12.544Z,7.50
2019-01-04T17:07:42.864Z,7.50
2019-01-04T17:10:14.179Z,7.40
2019-01-04T17:12:44.492Z,7.40
2019-01-04T17:15:15.165Z,7.40
2019-01-04T17:17:45.552Z,7.40
2019-01-04T17:20:15.732Z,7.40
2019-01-04T17:22:46.489Z,7.40
2019-01-04T17:25:17.158Z,7.40
2019-01-04T17:27:47.782Z,7.50
2019-01-04T17:30:18.392Z,7.40
2019-01-04T17:32:48.773Z,7.40
2019-01-04T17:35:19.068Z,7.40
2019-01-04T17:37:49.442Z,7.40
2019-01-04T17:40:19.929Z,7.40
2019-01-04T17:42:50.395Z,7.40
2019-01-04T17:45:20.979Z,7.40
2019-01-04T17:47:51.505Z,7.40
2019-01-04T17:50:21.868Z,7.40
2019-01-04T17:52:52.359Z,7.40
2019-01-04T17:55:23.360Z,7.40
2019-01-04T17:57:53.718Z,7.40
2019-01-04T18:00:27.658Z,7.50
2019-01-04T18:03:00.861Z,7.50
2019-01-04T18:05:30.080Z,7.40
2019-01-04T18:08:00.363Z,7.50
2019-01-04T18:10:32.209Z,7.50
2019-01-04T18:13:02.260Z,7.40
2019-01-04T18:15:32.747Z,7.40
2019-01-04T18:18:03.631Z,7.40
2019-01-04T18:20:34.065Z,7.40
2019-01-04T18:23:04.609Z,7.50
2019-01-04T18:25:35.086Z,7.40
2019-01-04T18:28:05.338Z,7.50
2019-01-04T18:30:35.959Z,7.60
2019-01-04T18:33:06.739Z,7.50
2019-01-04T18:35:37.342Z,7.60
2019-01-04T18:38:07.544Z,7.60
2019-01-04T18:40:39.411Z,7.70
2019-01-04T18:43:09.747Z,7.70
2019-01-04T18:45:40.302Z,7.60
2019-01-04T18:48:10.805Z,7.60
2019-01-04T18:50:42.576Z,7.50
2019-01-04T18:53:13.306Z,7.50
2019-01-04T18:55:43.725Z,7.50
2019-01-04T18:58:14.082Z,7.60
2019-01-04T19:00:44.505Z,7.60
2019-01-04T19:03:15.120Z,7.50
2019-01-04T19:05:45.967Z,7.60
2019-01-04T19:08:16.582Z,7.60
2019-01-04T19:10:47.279Z,7.70
2019-01-04T19:13:17.657Z,7.70
2019-01-04T19:15:47.824Z,7.60
2019-01-04T19:18:18.310Z,7.60
2019-01-04T19:20:50.690Z,7.60
2019-01-04T19:23:20.941Z,7.70
2019-01-04T19:25:51.508Z,7.60
2019-01-04T19:28:22.338Z,7.60
2019-01-04T19:30:52.660Z,7.60
2019-01-04T19:33:23.320Z,7.80
2019-01-04T19:35:54.108Z,7.80
2019-01-04T19:38:24.789Z,7.70
2019-01-04T19:40:55.337Z,7.70
2019-01-04T19:43:26.034Z,7.70
2019-01-04T19:45:56.412Z,7.70
2019-01-04T19:48:27.093Z,7.70
2019-01-04T19:50:57.739Z,7.70
2019-01-04T19:53:28.320Z,7.70
2019-01-04T19:55:58.626Z,7.80
2019-01-04T19:58:29.443Z,7.80
2019-01-04T20:00:59.939Z,7.80
2019-01-04T20:03:30.697Z,7.90
2019-01-04T20:06:30.887Z,7.90
2019-01-04T20:09:21.020Z,7.80
2019-01-04T20:12:14.486Z,7.80
2019-01-04T20:14:55.239Z,7.80
2019-01-04T20:17:30.493Z,7.80
2019-01-04T20:20:14.515Z,7.90
2019-01-04T20:22:46.826Z,7.80
2019-01-04T20:25:25.275Z,7.90
2019-01-04T20:27:57.559Z,7.80
2019-01-04T20:30:46.827Z,7.80
2019-01-04T20:33:34.146Z,7.80
2019-01-04T20:36:06.331Z,7.90
2019-01-04T20:38:41.204Z,7.80
2019-01-04T20:41:14.316Z,7.80
2019-01-04T20:44:03.195Z,7.80
2019-01-04T20:46:41.096Z,7.80
2019-01-04T20:49:25.115Z,7.80
2019-01-04T20:52:00.668Z,7.80
2019-01-04T20:54:49.037Z,7.90
2019-01-04T20:57:39.015Z,7.80
2019-01-04T21:00:27.307Z,7.80
2019-01-04T21:03:01.843Z,7.80
2019-01-04T21:05:34.405Z,7.80
2019-01-04T21:08:09.465Z,7.80
2019-01-04T21:10:53.448Z,7.80
2019-01-04T21:13:25.706Z,7.80
2019-01-04T21:15:58.347Z,7.80
2019-01-04T21:18:31.207Z,7.80
2019-01-04T21:21:03.462Z,7.90
2019-01-04T21:23:41.345Z,7.90
2019-01-04T21:26:14.574Z,7.90
2019-01-04T21:29:02.813Z,7.90
2019-01-04T21:31:47.102Z,7.90
2019-01-04T21:34:22.832Z,8.00
2019-01-04T21:36:58.642Z,8.00
2019-01-04T21:39:34.229Z,8.00
2019-01-04T21:42:18.843Z,8.00
2019-01-04T21:44:51.096Z,8.10
2019-01-04T21:47:27.113Z,8.00
2019-01-04T21:49:59.194Z,7.90
2019-01-04T21:52:32.152Z,8.00
2019-01-04T21:55:10.882Z,8.00
2019-01-04T21:57:59.623Z,8.00
2019-01-04T22:00:44.325Z,8.00
2019-01-04T22:03:19.035Z,8.00
2019-01-04T22:05:58.301Z,8.00
2019-01-04T22:08:35.929Z,8.10
2019-01-04T22:11:14.167Z,8.10
2019-01-04T22:13:46.434Z,8.00
2019-01-04T22:16:18.203Z,8.10
2019-01-04T22:18:59.225Z,8.20
2019-01-04T22:21:31.500Z,8.20
2019-01-04T22:24:03.713Z,8.20
2019-01-04T22:26:41.469Z,8.20
2019-01-04T22:29:30.036Z,8.20
2019-01-04T22:32:14.502Z,8.20
2019-01-04T22:34:55.314Z,8.20
2019-01-04T22:37:46.683Z,8.30
2019-01-04T22:40:35.574Z,8.30
2019-01-04T22:43:25.573Z,8.20
2019-01-04T22:46:12.762Z,8.30
2019-01-04T22:48:44.586Z,8.20
2019-01-04T22:51:19.442Z,8.30
2019-01-04T22:53:54.408Z,8.20
2019-01-04T22:56:42.038Z,8.30
2019-01-04T22:59:16.231Z,8.30
2019-01-04T23:01:49.034Z,8.20
2019-01-04T23:04:27.146Z,8.20
2019-01-04T23:07:14.933Z,8.20
2019-01-04T23:10:03.736Z,8.20
2019-01-04T23:12:42.150Z,8.30
2019-01-04T23:15:21.986Z,8.20
2019-01-04T23:17:54.549Z,8.20
2019-01-04T23:20:36.323Z,8.30
2019-01-04T23:23:14.757Z,8.30
2019-01-04T23:25:49.873Z,8.30
2019-01-04T23:28:33.903Z,8.30
2019-01-04T23:31:14.585Z,8.30
2019-01-04T23:33:46.409Z,8.30
2019-01-04T23:36:18.457Z,8.30
2019-01-04T23:38:50.429Z,8.30
2019-01-04T23:41:38.289Z,8.30
2019-01-04T23:44:27.460Z,8.30
2019-01-04T23:47:16.355Z,8.30
2019-01-04T23:50:04.956Z,8.40
2019-01-04T23:52:42.542Z,8.30
2019-01-04T23:55:26.540Z,8.30
2019-01-04T23:58:14.884Z,8.30
